createdAt,value
2023-05-24T00:00:47.522Z,7.22
2023-05-24T00:03:18.795Z,7.24
2023-05-24T00:06:00.532Z,7.12
2023-05-24T00:08:43.196Z,7.13
2023-05-24T00:11:12.017Z,7.08
2023-05-24T00:13:40.365Z,7.07
2023-05-24T00:16:08.670Z,7.03
2023-05-24T00:18:41.033Z,7.00
2023-05-24T00:21:11.933Z,7.02
2023-05-24T00:23:41.969Z,6.96
2023-05-24T00:26:10.506Z,6.89
2023-05-24T00:28:38.778Z,6.92
2023-05-24T00:31:08.292Z,6.87
2023-05-24T00:33:38.744Z,6.76
2023-05-24T00:36:11.470Z,6.75
2023-05-24T00:38:39.823Z,6.76
2023-05-24T00:41:08.217Z,6.84
2023-05-24T00:43:37.114Z,6.76
2023-05-24T00:46:14.665Z,6.77
2023-05-24T00:48:46.034Z,6.66
2023-05-24T00:51:16.706Z,6.61
2023-05-24T00:53:46.837Z,6.61
2023-05-24T00:56:18.531Z,6.56
2023-05-24T00:58:47.963Z,6.52
2023-05-24T01:01:16.423Z,6.50
2023-05-24T01:03:46.244Z,6.51
2023-05-24T01:06:17.633Z,6.54
2023-05-24T01:08:56.124Z,6.45
2023-05-24T01:11:30.249Z,6.47
2023-05-24T01:14:03.972Z,6.49
2023-05-24T01:16:37.982Z,6.50
2023-05-24T01:19:13.247Z,6.46
2023-05-24T01:21:50.572Z,6.42
2023-05-24T01:24:26.303Z,6.32
2023-05-24T01:27:03.264Z,6.26
2023-05-24T01:29:32.172Z,6.16
2023-05-24T01:32:00.502Z,6.16
2023-05-24T01:34:28.873Z,6.14
2023-05-24T01:36:57.348Z,6.14
2023-05-24T01:39:28.414Z,6.14
2023-05-24T01:42:01.088Z,6.06
2023-05-24T01:44:37.704Z,6.02
2023-05-24T01:47:12.762Z,5.96
2023-05-24T01:49:46.199Z,5.90
2023-05-24T01:52:17.336Z,5.82
2023-05-24T01:54:50.556Z,5.85
2023-05-24T01:57:20.647Z,5.87
2023-05-24T01:59:51.026Z,5.97
2023-05-24T02:02:22.587Z,5.85
2023-05-24T02:04:51.125Z,5.92
2023-05-24T02:07:19.354Z,5.84
2023-05-24T02:09:50.937Z,5.80
2023-05-24T02:12:19.147Z,5.77
2023-05-24T02:14:51.016Z,5.69
2023-05-24T02:17:20.704Z,5.65
2023-05-24T02:19:49.019Z,5.57
2023-05-24T02:22:17.525Z,5.49
2023-05-24T02:24:49.376Z,5.42
2023-05-24T02:27:17.728Z,5.33
2023-05-24T02:29:45.980Z,5.34
2023-05-24T02:32:17.074Z,5.34
2023-05-24T02:34:46.747Z,5.38
2023-05-24T02:37:15.178Z,5.48
2023-05-24T02:39:43.886Z,5.54
2023-05-24T02:42:12.132Z,5.54
2023-05-24T02:44:42.462Z,5.62
2023-05-24T02:47:10.823Z,5.57
2023-05-24T02:49:40.164Z,5.53
2023-05-24T02:52:11.559Z,5.56
2023-05-24T02:54:40.194Z,5.53
2023-05-24T02:57:11.696Z,5.50
2023-05-24T03:00:00.425Z,5.55
2023-05-24T03:02:30.078Z,5.55
2023-05-24T03:04:58.411Z,5.52
2023-05-24T03:07:28.513Z,5.57
2023-05-24T03:09:58.140Z,5.64
2023-05-24T03:12:26.600Z,5.65
2023-05-24T03:14:58.228Z,5.65
2023-05-24T03:17:26.580Z,5.82
2023-05-24T03:19:55.170Z,5.74
2023-05-24T03:22:23.540Z,5.64
2023-05-24T03:24:53.424Z,5.72
2023-05-24T03:27:25.700Z,5.65
2023-05-24T03:29:54.120Z,5.72
2023-05-24T03:32:22.510Z,5.69
2023-05-24T03:34:51.004Z,5.74
2023-05-24T03:37:19.456Z,5.75
2023-05-24T03:39:47.848Z,5.76
2023-05-24T03:42:17.713Z,5.72
2023-05-24T03:44:46.244Z,5.68
2023-05-24T03:47:14.854Z,5.67
2023-05-24T03:49:45.817Z,5.71
2023-05-24T03:52:14.310Z,5.69
2023-05-24T03:54:42.776Z,5.77
2023-05-24T03:57:11.069Z,5.76
2023-05-24T03:59:43.353Z,6.06
2023-05-24T04:02:11.803Z,6.38
2023-05-24T04:04:40.728Z,6.55
2023-05-24T04:07:11.918Z,6.72
2023-05-24T04:09:40.724Z,6.84
2023-05-24T04:12:09.194Z,6.78
2023-05-24T04:14:37.496Z,6.71
2023-05-24T04:17:07.878Z,6.65
2023-05-24T04:19:36.538Z,6.63
2023-05-24T04:22:07.715Z,6.62
2023-05-24T04:24:36.709Z,6.54
2023-05-24T04:27:09.914Z,6.65
2023-05-24T04:29:38.232Z,6.72
2023-05-24T04:32:10.105Z,6.69
2023-05-24T04:34:42.988Z,6.71
2023-05-24T04:37:11.884Z,6.92
2023-05-24T04:39:43.258Z,6.98
2023-05-24T04:42:12.270Z,6.88
2023-05-24T04:44:41.672Z,6.90
2023-05-24T04:47:13.084Z,6.95
2023-05-24T04:49:41.795Z,7.05
2023-05-24T04:52:10.465Z,7.14
2023-05-24T04:54:39.657Z,7.20
2023-05-24T04:57:08.721Z,7.36
2023-05-24T04:59:37.051Z,7.46
2023-05-24T05:02:05.750Z,7.57
2023-05-24T05:04:35.398Z,7.74
2023-05-24T05:07:04.323Z,7.86
2023-05-24T05:09:35.262Z,7.95
2023-05-24T05:12:03.761Z,8.01
2023-05-24T05:14:32.758Z,8.09
2023-05-24T05:17:01.367Z,8.15
2023-05-24T05:19:29.793Z,8.17
2023-05-24T05:21:59.779Z,8.43
2023-05-24T05:24:28.085Z,8.58
2023-05-24T05:26:56.451Z,8.91
2023-05-24T05:29:27.820Z,9.27
2023-05-24T05:31:56.223Z,9.58
2023-05-24T05:34:24.790Z,9.72
2023-05-24T05:36:53.325Z,9.65
2023-05-24T05:39:23.246Z,9.61
2023-05-24T05:41:59.390Z,9.57
2023-05-24T05:44:27.811Z,9.68
2023-05-24T05:46:57.707Z,9.89
2023-05-24T05:49:26.339Z,10.19
2023-05-24T05:51:55.935Z,10.35
2023-05-24T05:54:27.897Z,10.83
2023-05-24T05:56:56.565Z,11.24
2023-05-24T05:59:27.290Z,11.35
2023-05-24T06:01:58.848Z,11.63
2023-05-24T06:04:27.571Z,11.85
2023-05-24T06:06:59.909Z,11.90
2023-05-24T06:09:29.748Z,11.97
2023-05-24T06:11:58.437Z,11.89
2023-05-24T06:14:27.105Z,11.89
2023-05-24T06:16:56.275Z,11.95
2023-05-24T06:19:30.073Z,12.24
2023-05-24T06:22:01.461Z,12.24
2023-05-24T06:24:31.232Z,12.25
2023-05-24T06:26:59.845Z,12.29
2023-05-24T06:29:28.154Z,12.41
2023-05-24T06:31:56.724Z,12.60
2023-05-24T06:34:25.664Z,12.76
2023-05-24T06:36:54.073Z,12.86
2023-05-24T06:39:25.022Z,12.83
2023-05-24T06:41:54.912Z,12.99
2023-05-24T06:44:25.337Z,13.02
2023-05-24T06:46:56.519Z,13.08
2023-05-24T06:49:24.909Z,13.18
2023-05-24T06:51:53.226Z,13.26
2023-05-24T06:54:22.792Z,13.41
2023-05-24T06:56:51.762Z,13.70
2023-05-24T06:59:21.968Z,13.53
2023-05-24T07:01:53.772Z,13.58
2023-05-24T07:04:24.298Z,13.61
2023-05-24T07:06:52.912Z,13.62
2023-05-24T07:09:24.802Z,13.86
2023-05-24T07:11:53.574Z,14.49
2023-05-24T07:14:26.244Z,15.44
2023-05-24T07:16:57.318Z,16.19
2023-05-24T07:19:29.145Z,16.50
2023-05-24T07:21:57.928Z,16.46
2023-05-24T07:24:26.579Z,16.43
2023-05-24T07:26:56.607Z,16.45
2023-05-24T07:29:26.845Z,16.63
2023-05-24T07:31:58.277Z,16.70
2023-05-24T07:34:30.050Z,16.59
2023-05-24T07:37:01.305Z,16.89
2023-05-24T07:39:29.643Z,17.01
2023-05-24T07:41:58.013Z,16.75
2023-05-24T07:44:27.870Z,16.71
2023-05-24T07:47:04.551Z,16.30
2023-05-24T07:49:33.586Z,15.90
2023-05-24T07:52:03.892Z,15.62
2023-05-24T07:54:32.344Z,15.16
2023-05-24T07:57:02.079Z,14.87
2023-05-24T07:59:36.510Z,14.59
2023-05-24T08:02:05.791Z,14.28
2023-05-24T08:04:34.078Z,14.57
2023-05-24T08:07:03.354Z,15.00
2023-05-24T08:09:35.595Z,15.39
2023-05-24T08:12:04.932Z,15.49
2023-05-24T08:14:33.407Z,15.72
2023-05-24T08:17:03.127Z,15.81
2023-05-24T08:19:35.938Z,15.59
2023-05-24T08:22:05.992Z,15.41
2023-05-24T08:24:34.526Z,15.23
2023-05-24T08:27:04.393Z,15.48
2023-05-24T08:29:32.832Z,15.64
2023-05-24T08:32:04.179Z,16.19
2023-05-24T08:34:33.550Z,16.95
2023-05-24T08:37:02.174Z,17.25
2023-05-24T08:39:30.942Z,16.98
2023-05-24T08:42:09.503Z,16.89
2023-05-24T08:44:41.153Z,16.64
2023-05-24T08:47:14.316Z,16.87
2023-05-24T08:49:44.239Z,17.36
2023-05-24T08:52:14.100Z,17.44
2023-05-24T08:54:43.221Z,17.27
2023-05-24T08:57:12.217Z,17.07
2023-05-24T08:59:48.400Z,16.64
2023-05-24T09:02:18.985Z,16.23
2023-05-24T09:04:49.636Z,15.82
2023-05-24T09:07:19.275Z,15.37
2023-05-24T09:09:48.871Z,15.60
2023-05-24T09:12:35.569Z,15.72
2023-05-24T09:15:08.310Z,15.86
2023-05-24T09:17:40.684Z,16.25
2023-05-24T09:20:12.688Z,16.71
2023-05-24T09:22:42.847Z,17.08
2023-05-24T09:25:13.722Z,17.16
2023-05-24T09:27:53.071Z,16.89
2023-05-24T09:30:22.040Z,16.79
2023-05-24T09:32:59.193Z,16.51
2023-05-24T09:35:28.591Z,16.48
2023-05-24T09:38:00.030Z,16.44
2023-05-24T09:40:29.346Z,18.05
2023-05-24T09:43:05.180Z,18.82
2023-05-24T09:45:33.757Z,21.30
2023-05-24T09:48:07.572Z,22.67
2023-05-24T09:50:36.414Z,22.28
2023-05-24T09:53:04.876Z,20.17
2023-05-24T09:55:37.109Z,19.22
2023-05-24T09:58:08.185Z,18.31
2023-05-24T10:00:39.671Z,17.57
2023-05-24T10:03:11.014Z,17.04
2023-05-24T10:05:42.950Z,16.52
2023-05-24T10:08:11.590Z,16.33
2023-05-24T10:10:40.009Z,16.16
2023-05-24T10:13:08.705Z,15.98
2023-05-24T10:15:37.085Z,16.00
2023-05-24T10:18:10.680Z,15.98
2023-05-24T10:20:44.073Z,17.15
2023-05-24T10:23:16.991Z,18.84
2023-05-24T10:25:48.293Z,21.38
2023-05-24T10:28:19.930Z,23.10
2023-05-24T10:30:53.945Z,25.07
2023-05-24T10:33:24.229Z,24.61
2023-05-24T10:35:54.970Z,23.64
2023-05-24T10:38:24.129Z,22.13
2023-05-24T10:40:52.735Z,20.85
2023-05-24T10:43:22.509Z,19.73
2023-05-24T10:45:51.253Z,18.63
2023-05-24T10:48:42.263Z,17.76
2023-05-24T10:51:29.283Z,17.37
2023-05-24T10:53:59.641Z,16.91
2023-05-24T10:56:28.521Z,16.76
2023-05-24T10:59:01.006Z,16.46
2023-05-24T11:01:30.339Z,16.41
2023-05-24T11:04:07.804Z,16.46
2023-05-24T11:06:49.363Z,16.73
2023-05-24T11:09:20.229Z,16.96
2023-05-24T11:11:50.078Z,17.09
2023-05-24T11:14:24.371Z,16.89
2023-05-24T11:16:52.898Z,16.77
2023-05-24T11:19:21.790Z,16.52
2023-05-24T11:21:50.803Z,16.76
2023-05-24T11:24:21.741Z,16.57
2023-05-24T11:26:51.323Z,16.44
2023-05-24T11:29:22.280Z,16.56
2023-05-24T11:31:52.524Z,16.36
2023-05-24T11:34:21.450Z,16.30
2023-05-24T11:36:50.012Z,16.43
2023-05-24T11:39:18.615Z,16.37
2023-05-24T11:41:48.491Z,16.10
2023-05-24T11:44:18.174Z,16.20
2023-05-24T11:46:47.104Z,16.38
2023-05-24T11:49:16.122Z,16.38
2023-05-24T11:51:44.831Z,16.40
2023-05-24T11:54:13.241Z,16.50
2023-05-24T11:56:41.629Z,16.56
2023-05-24T11:59:15.633Z,16.44
2023-05-24T12:01:44.395Z,16.64
2023-05-24T12:04:12.934Z,16.68
2023-05-24T12:06:42.811Z,16.86
2023-05-24T12:09:13.479Z,17.07
2023-05-24T12:11:42.361Z,17.51
2023-05-24T12:14:15.448Z,17.51
2023-05-24T12:16:44.288Z,18.33
2023-05-24T12:19:31.369Z,18.91
2023-05-24T12:22:02.093Z,19.03
2023-05-24T12:24:32.704Z,19.10
2023-05-24T12:27:03.431Z,18.90
2023-05-24T12:29:37.695Z,18.91
2023-05-24T12:32:12.319Z,18.90
2023-05-24T12:34:42.028Z,18.51
2023-05-24T12:37:36.621Z,18.69
2023-05-24T12:40:15.649Z,19.37
2023-05-24T12:42:45.148Z,20.12
2023-05-24T12:45:14.924Z,21.92
2023-05-24T12:47:44.457Z,22.69
2023-05-24T12:50:12.808Z,22.60
2023-05-24T12:52:41.148Z,21.67
2023-05-24T12:55:09.587Z,20.81
2023-05-24T12:57:38.434Z,21.53
2023-05-24T13:00:13.207Z,21.59
2023-05-24T13:02:50.066Z,21.18
2023-05-24T13:05:19.653Z,20.91
2023-05-24T13:07:53.325Z,23.47
2023-05-24T13:10:22.316Z,24.85
2023-05-24T13:12:51.060Z,24.39
2023-05-24T13:15:23.125Z,24.85
2023-05-24T13:17:53.554Z,24.55
2023-05-24T13:20:24.088Z,23.33
2023-05-24T13:22:52.556Z,21.96
2023-05-24T13:25:22.528Z,21.14
2023-05-24T13:27:51.205Z,19.61
2023-05-24T13:30:27.321Z,19.12
2023-05-24T13:32:58.672Z,18.41
2023-05-24T13:35:27.139Z,18.16
2023-05-24T13:37:58.013Z,17.70
2023-05-24T13:40:27.030Z,17.71
2023-05-24T13:42:56.995Z,17.64
2023-05-24T13:45:25.543Z,17.44
2023-05-24T13:47:58.380Z,17.09
2023-05-24T13:50:28.347Z,16.25
2023-05-24T13:52:57.154Z,15.72
2023-05-24T13:55:25.596Z,15.60
2023-05-24T13:57:55.428Z,15.78
2023-05-24T14:00:24.268Z,15.90
2023-05-24T14:02:53.133Z,16.65
2023-05-24T14:05:26.585Z,17.89
2023-05-24T14:08:00.263Z,18.56
2023-05-24T14:10:29.235Z,19.25
2023-05-24T14:13:16.229Z,19.16
2023-05-24T14:15:47.244Z,19.03
2023-05-24T14:18:15.733Z,18.69
2023-05-24T14:20:44.194Z,18.42
2023-05-24T14:23:14.487Z,17.72
2023-05-24T14:25:43.291Z,17.46
2023-05-24T14:28:12.835Z,17.04
2023-05-24T14:30:41.959Z,16.72
2023-05-24T14:33:11.421Z,16.24
2023-05-24T14:35:40.589Z,16.55
2023-05-24T14:38:09.756Z,16.41
2023-05-24T14:40:40.771Z,16.51
2023-05-24T14:43:10.709Z,16.74
2023-05-24T14:45:41.282Z,17.27
2023-05-24T14:48:12.024Z,17.73
2023-05-24T14:50:41.604Z,18.05
2023-05-24T14:53:12.191Z,18.00
2023-05-24T14:55:44.056Z,18.60
2023-05-24T14:58:13.278Z,19.14
2023-05-24T15:00:45.622Z,19.79
2023-05-24T15:03:16.190Z,19.82
2023-05-24T15:05:44.753Z,19.38
2023-05-24T15:08:13.787Z,18.82
2023-05-24T15:10:45.321Z,18.68
2023-05-24T15:13:14.423Z,18.76
2023-05-24T15:15:43.298Z,19.04
2023-05-24T15:18:12.017Z,19.61
2023-05-24T15:20:41.122Z,20.08
2023-05-24T15:23:10.888Z,20.38
2023-05-24T15:25:39.447Z,20.90
2023-05-24T15:28:12.851Z,21.26
2023-05-24T15:30:44.126Z,21.25
2023-05-24T15:33:13.267Z,20.85
2023-05-24T15:35:42.185Z,20.39
2023-05-24T15:38:10.586Z,19.42
2023-05-24T15:40:41.963Z,19.14
2023-05-24T15:43:12.039Z,18.73
2023-05-24T15:45:40.637Z,17.21
2023-05-24T15:48:09.142Z,17.05
2023-05-24T15:53:12.664Z,17.52
2023-05-24T15:55:41.181Z,17.69
2023-05-24T15:58:10.154Z,17.64
2023-05-24T16:00:39.978Z,17.70
2023-05-24T16:03:08.426Z,17.82
2023-05-24T16:05:37.037Z,17.91
2023-05-24T16:08:05.684Z,17.72
2023-05-24T16:10:35.722Z,17.33
2023-05-24T16:13:04.304Z,17.73
2023-05-24T16:15:39.738Z,17.98
2023-05-24T16:18:10.395Z,17.72
2023-05-24T16:20:44.526Z,17.41
2023-05-24T16:23:13.670Z,17.79
2023-05-24T16:25:41.992Z,18.23
2023-05-24T16:28:10.349Z,18.30
2023-05-24T16:30:38.703Z,17.72
2023-05-24T16:33:07.266Z,17.75
2023-05-24T16:35:37.270Z,17.68
2023-05-24T16:38:05.563Z,17.42
2023-05-24T16:40:33.898Z,16.96
2023-05-24T16:43:02.477Z,16.90
2023-05-24T16:45:30.790Z,16.74
2023-05-24T16:47:59.320Z,16.45
2023-05-24T16:50:28.151Z,16.21
2023-05-24T16:52:57.804Z,15.96
2023-05-24T16:55:26.143Z,15.57
2023-05-24T16:57:54.455Z,15.42
2023-05-24T17:00:23.392Z,15.32
2023-05-24T17:02:51.908Z,15.11
2023-05-24T17:05:20.326Z,15.18
2023-05-24T17:07:48.638Z,15.13
2023-05-24T17:10:18.941Z,15.05
2023-05-24T17:12:48.439Z,14.98
2023-05-24T17:15:16.974Z,15.10
2023-05-24T17:17:45.560Z,15.08
2023-05-24T17:20:14.074Z,15.15
2023-05-24T17:22:42.457Z,15.32
2023-05-24T17:25:11.401Z,15.29
2023-05-24T17:27:41.050Z,15.22
2023-05-24T17:30:10.246Z,15.18
2023-05-24T17:32:38.707Z,15.06
2023-05-24T17:35:07.137Z,15.01
2023-05-24T17:37:35.543Z,14.99
2023-05-24T17:40:03.897Z,14.99
2023-05-24T17:42:32.481Z,15.09
2023-05-24T17:45:02.227Z,15.16
2023-05-24T17:47:30.798Z,15.14
2023-05-24T17:50:00.639Z,15.18
2023-05-24T17:52:29.609Z,15.36
2023-05-24T17:54:57.911Z,15.40
2023-05-24T17:57:27.441Z,15.45
2023-05-24T17:59:56.230Z,15.39
2023-05-24T18:02:26.573Z,15.29
2023-05-24T18:04:55.548Z,15.10
2023-05-24T18:07:24.257Z,14.90
2023-05-24T18:09:53.079Z,14.81
2023-05-24T18:12:21.810Z,14.73
2023-05-24T18:14:50.509Z,14.86
2023-05-24T18:17:18.939Z,14.85
2023-05-24T18:19:48.638Z,14.83
2023-05-24T18:22:17.341Z,14.74
2023-05-24T18:24:45.837Z,14.77
2023-05-24T18:27:14.368Z,14.75
2023-05-24T18:29:42.699Z,14.68
2023-05-24T18:32:10.991Z,14.65
2023-05-24T18:34:39.330Z,14.58
2023-05-24T18:37:09.351Z,14.54
2023-05-24T18:39:38.387Z,14.53
2023-05-24T18:42:09.028Z,14.37
2023-05-24T18:44:37.923Z,14.21
2023-05-24T18:47:06.498Z,14.11
2023-05-24T18:49:37.007Z,14.07
2023-05-24T18:52:12.922Z,13.98
2023-05-24T18:54:49.783Z,13.94
2023-05-24T18:57:22.200Z,13.85
2023-05-24T18:59:54.156Z,13.79
2023-05-24T19:02:39.181Z,13.64
2023-05-24T19:05:19.313Z,13.55
2023-05-24T19:07:48.856Z,13.41
2023-05-24T19:10:36.274Z,13.28
2023-05-24T19:13:28.104Z,13.17
2023-05-24T19:16:00.533Z,13.08
2023-05-24T19:18:29.421Z,13.01
2023-05-24T19:21:03.471Z,12.97
2023-05-24T19:23:32.577Z,12.99
2023-05-24T19:26:04.702Z,12.82
2023-05-24T19:28:40.774Z,12.68
2023-05-24T19:31:11.424Z,12.47
2023-05-24T19:33:59.274Z,12.35
2023-05-24T19:36:34.029Z,12.15
2023-05-24T19:39:06.146Z,11.98
2023-05-24T19:41:37.548Z,11.80
2023-05-24T19:44:08.134Z,11.68
2023-05-24T19:46:37.174Z,11.60
2023-05-24T19:49:07.103Z,11.55
2023-05-24T19:51:37.774Z,11.52
2023-05-24T19:54:11.885Z,11.41
2023-05-24T19:56:44.336Z,11.33
2023-05-24T19:59:18.190Z,11.17
2023-05-24T20:01:46.893Z,11.09
2023-05-24T20:04:15.770Z,11.06
2023-05-24T20:06:47.996Z,10.98
2023-05-24T20:09:18.783Z,10.88
2023-05-24T20:11:48.248Z,10.76
2023-05-24T20:14:20.194Z,10.72
2023-05-24T20:16:58.019Z,10.71
2023-05-24T20:19:34.333Z,10.77
2023-05-24T20:22:04.138Z,10.63
2023-05-24T20:24:37.894Z,10.55
2023-05-24T20:27:14.848Z,10.49
2023-05-24T20:29:48.528Z,10.42
2023-05-24T20:32:23.732Z,10.36
2023-05-24T20:34:57.842Z,10.30
2023-05-24T20:37:32.396Z,10.31
2023-05-24T20:40:04.886Z,10.28
2023-05-24T20:42:36.002Z,10.25
2023-05-24T20:45:07.163Z,10.28
2023-05-24T20:47:35.737Z,10.33
2023-05-24T20:50:04.595Z,10.42
2023-05-24T20:52:35.840Z,10.58
2023-05-24T20:55:08.016Z,10.66
2023-05-24T20:57:37.164Z,10.77
2023-05-24T21:00:08.981Z,10.90
2023-05-24T21:02:38.007Z,10.99
2023-05-24T21:05:08.833Z,11.00
2023-05-24T21:07:37.415Z,10.95
2023-05-24T21:10:06.051Z,10.94
2023-05-24T21:12:34.476Z,10.93
2023-05-24T21:15:02.977Z,10.90
2023-05-24T21:17:32.621Z,10.92
2023-05-24T21:20:03.396Z,10.92
2023-05-24T21:22:31.818Z,10.95
2023-05-24T21:25:00.154Z,10.93
2023-05-24T21:27:28.619Z,10.89
2023-05-24T21:29:56.916Z,10.82
2023-05-24T21:32:25.549Z,10.88
2023-05-24T21:34:56.508Z,10.90
2023-05-24T21:37:30.787Z,10.90
2023-05-24T21:40:00.835Z,10.84
2023-05-24T21:42:29.755Z,10.76
2023-05-24T21:45:07.485Z,10.65
2023-05-24T21:47:36.926Z,10.57
2023-05-24T21:50:07.802Z,10.52
2023-05-24T21:52:36.347Z,10.54
2023-05-24T21:55:13.081Z,10.44
2023-05-24T21:57:41.775Z,10.27
2023-05-24T22:00:12.262Z,10.15
2023-05-24T22:02:47.571Z,10.06
2023-05-24T22:05:20.242Z,9.97
2023-05-24T22:07:58.740Z,9.90
2023-05-24T22:10:27.858Z,9.83
2023-05-24T22:13:24.446Z,9.82
2023-05-24T22:15:53.718Z,9.85
2023-05-24T22:18:22.164Z,9.88
2023-05-24T22:20:52.870Z,10.00
2023-05-24T22:23:21.614Z,10.10
2023-05-24T22:25:50.111Z,10.20
2023-05-24T22:28:19.875Z,10.22
2023-05-24T22:30:48.413Z,10.20
2023-05-24T22:33:16.712Z,10.22
2023-05-24T22:35:45.163Z,10.16
2023-05-24T22:38:15.170Z,10.10
2023-05-24T22:40:44.171Z,10.03
2023-05-24T22:43:12.668Z,10.01
2023-05-24T22:45:41.173Z,9.88
2023-05-24T22:48:10.370Z,9.72
2023-05-24T22:50:39.195Z,9.59
2023-05-24T22:53:09.080Z,9.50
2023-05-24T22:55:38.737Z,9.38
2023-05-24T22:58:07.221Z,9.29
2023-05-24T23:00:35.563Z,9.26
2023-05-24T23:03:04.076Z,9.19
2023-05-24T23:05:32.455Z,9.28
2023-05-24T23:08:03.476Z,9.27
2023-05-24T23:10:31.848Z,9.29
2023-05-24T23:13:01.456Z,9.31
2023-05-24T23:15:31.894Z,9.32
2023-05-24T23:18:00.583Z,9.25
2023-05-24T23:20:29.533Z,9.17
2023-05-24T23:22:58.890Z,9.05
2023-05-24T23:25:27.203Z,8.96
2023-05-24T23:27:55.759Z,8.89
2023-05-24T23:30:25.503Z,8.96
2023-05-24T23:32:53.735Z,8.95
2023-05-24T23:35:22.020Z,8.96
2023-05-24T23:37:50.280Z,8.94
2023-05-24T23:40:18.579Z,8.92
2023-05-24T23:42:46.894Z,8.88
2023-05-24T23:45:16.436Z,8.88
2023-05-24T23:47:46.469Z,8.89
2023-05-24T23:50:17.404Z,8.92
2023-05-24T23:53:00.157Z,8.87
2023-05-24T23:55:28.535Z,8.82
2023-05-24T23:57:56.809Z,8.82
